Time;durP1;ratioP1;P1;durP2;ratioP2;P2;SDS_P1;SDS_P2;PMS_P1;PMS_P2;Temp;Humidity;BMP_temperature;BMP_pressure;BME280_temperature;BME280_humidity;BME280_pressure;Samples;Min_cycle;Max_cycle;Signal;HPM_P1;HPM_P2
2022/03/29 00:01:24;;;;;;;;;;;;;;;;;;4985528;28;124158;-66
2022/03/29 00:03:50;;;;;;;;;;;;;;;;;;4989897;28;136274;-66
2022/03/29 00:06:17;;;;;;;;;;;;;;;;;;4987940;28;135546;-66
2022/03/29 00:08:43;;;;;;;;;;;;;;;;;;4989170;28;123108;-66
2022/03/29 00:11:09;;;;;;;;;;;;;;;;;;4990517;28;127508;-66
2022/03/29 00:13:36;;;;;;;;;;;;;;;;;;4970897;28;126286;-66
2022/03/29 00:16:02;;;;;;;;;;;;;;;;;;4987783;28;135190;-66
2022/03/29 00:18:28;;;;;;;;;;;;;;;;;;4989230;28;135710;-66
2022/03/29 00:20:55;;;;;;;;;;;;;;;;;;4988427;28;124000;-66
2022/03/29 00:23:21;;;;;;;;;;;;;;;;;;4987342;28;136600;-66
2022/03/29 00:25:47;;;;;;;;;;;;;;;;;;4974938;28;130097;-66
2022/03/29 00:28:14;;;;;;;;;;;;;;;;;;4991520;28;122623;-66
2022/03/29 00:30:40;;;;;;;;;;;;;;;;;;4991743;28;135969;-66
2022/03/29 00:33:07;;;;;;;;;;;;;;;;;;4992564;28;137904;-66
2022/03/29 00:35:33;;;;;;;;;;;;;;;;;;4985287;28;136446;-66
2022/03/29 00:38:00;;;;;;;;;;;;;;;;;;4990283;28;135784;-66
2022/03/29 00:40:27;;;;;;;;;;;;;;;;;;4986309;28;124014;-66
2022/03/29 00:42:53;;;;;;;;;;;;;;;;;;4990234;28;135913;-65
2022/03/29 00:45:19;;;;;;;;;;;;;;;;;;4987837;28;132261;-65
2022/03/29 00:47:45;;;;;;;;;;;;;;;;;;4986318;28;124016;-65
2022/03/29 00:50:12;;;;;;;;;;;;;;;;;;4987110;28;136619;-66
2022/03/29 00:52:38;;;;;;;;;;;;;;;;;;4989783;28;113690;-65
2022/03/29 00:55:05;;;;;;;;;;;;;;;;;;4988404;28;123156;-66
2022/03/29 00:57:32;;;;;;;;;;;;;;;;;;4988616;28;137093;-65
2022/03/29 00:59:59;;;;;;;;;;;;;;;;;;4979641;28;124275;-66
2022/03/29 01:02:25;;;;;;;;;;;;;;;;;;4989130;28;106876;-65
2022/03/29 01:04:52;;;;;;;;;;;;;;;;;;4983161;28;135434;-65
2022/03/29 01:07:18;;;;;;;;;;;;;;;;;;4988504;28;122994;-65
2022/03/29 01:09:44;;;;;;;;;;;;;;;;;;4981560;28;128169;-65
2022/03/29 01:12:12;;;;;;;;;;;;;;;;;;4982487;22;108209;-66
2022/03/29 01:14:38;;;;;;;;;;;;;;;;;;4969071;28;124273;-66
2022/03/29 01:19:50;;;;;;;;;;;;;;;;;;4969208;28;122636;-66
2022/03/29 01:22:19;;;;;;;;;;;;;;;;;;4969355;28;135944;-66
2022/03/29 01:24:46;;;;;;;;;;;;;;;;;;4975305;28;115603;-65
2022/03/29 01:27:12;;;;;;;;;;;;;;;;;;4968412;28;124085;-66
2022/03/29 01:29:38;;;;;;;;;;;;;;;;;;4968763;28;132071;-66
2022/03/29 01:32:05;;;;;;;;;;;;;;;;;;4968215;28;137926;-66
2022/03/29 01:34:31;;;;;;;;;;;;;;;;;;4968992;28;124907;-66
2022/03/29 01:36:57;;;;;;;;;;;;;;;;;;4966713;28;114191;-66
2022/03/29 01:39:24;;;;;;;;;;;;;;;;;;4969533;28;137032;-66
2022/03/29 01:41:50;;;;;;;;;;;;;;;;;;4975442;28;135196;-66
2022/03/29 01:44:16;;;;;;;;;;;;;;;;;;4968640;28;137123;-66
2022/03/29 01:46:42;;;;;;;;;;;;;;;;;;4968326;28;122787;-66
2022/03/29 01:49:10;;;;;;;;;;;;;;;;;;4970973;28;137522;-66
2022/03/29 01:51:36;;;;;;;;;;;;;;;;;;4968472;28;130895;-67
2022/03/29 01:54:02;;;;;;;;;;;;;;;;;;4969896;28;119305;-66
2022/03/29 01:56:29;;;;;;;;;;;;;;;;;;4972364;28;138039;-66
2022/03/29 01:58:56;;;;;;;;;;;;;;;;;;4967746;28;137713;-66
2022/03/29 02:01:22;;;;;;;;;;;;;;;;;;4971390;28;123151;-66
2022/03/29 02:03:48;;;;;;;;;;;;;;;;;;4966532;28;136255;-66
2022/03/29 02:06:15;;;;;;;;;;;;;;;;;;4975391;28;123795;-66
2022/03/29 02:08:41;;;;;;;;;;;;;;;;;;4969376;28;121548;-66
2022/03/29 02:11:08;;;;;;;;;;;;;;;;;;4969057;28;135756;-66
2022/03/29 02:13:35;;;;;;;;;;;;;;;;;;4968107;28;122630;-66
2022/03/29 02:16:01;;;;;;;;;;;;;;;;;;4969208;28;135237;-66
2022/03/29 02:18:27;;;;;;;;;;;;;;;;;;4968939;28;135171;-66
2022/03/29 02:20:54;;;;;;;;;;;;;;;;;;4971392;28;122774;-66
2022/03/29 02:23:20;;;;;;;;;;;;;;;;;;4971400;28;138014;-65
2022/03/29 02:25:47;;;;;;;;;;;;;;;;;;4980348;28;122885;-66
2022/03/29 02:28:13;;;;;;;;;;;;;;;;;;4968440;28;137092;-66
2022/03/29 02:30:39;;;;;;;;;;;;;;;;;;4968593;28;137091;-65
2022/03/29 02:33:05;;;;;;;;;;;;;;;;;;4967650;28;123292;-66
2022/03/29 02:35:32;;;;;;;;;;;;;;;;;;4969656;28;135177;-65
2022/03/29 02:37:59;;;;;;;;;;;;;;;;;;4968191;28;135694;-65
2022/03/29 02:40:25;;;;;;;;;;;;;;;;;;4969437;28;120519;-65
2022/03/29 02:42:51;;;;;;;;;;;;;;;;;;4971791;28;135019;-65
2022/03/29 02:45:17;;;;;;;;;;;;;;;;;;4967755;28;121841;-65
2022/03/29 02:47:44;;;;;;;;;;;;;;;;;;4968460;28;136556;-66
2022/03/29 02:50:10;;;;;;;;;;;;;;;;;;4969454;28;134223;-66
2022/03/29 02:52:36;;;;;;;;;;;;;;;;;;4967552;28;125613;-65
2022/03/29 02:55:02;;;;;;;;;;;;;;;;;;4969898;28;119787;-65
2022/03/29 02:57:29;;;;;;;;;;;;;;;;;;4968552;28;136675;-65
2022/03/29 02:59:55;;;;;;;;;;;;;;;;;;4967069;28;121095;-65
2022/03/29 03:02:22;;;;;;;;;;;;;;;;;;4967910;28;136461;-66
2022/03/29 03:04:48;;;;;;;;;;;;;;;;;;4963151;28;135929;-65
2022/03/29 03:07:15;;;;;;;;;;;;;;;;;;4976373;28;125802;-65
2022/03/29 03:09:41;;;;;;;;;;;;;;;;;;4969139;28;137567;-65
2022/03/29 03:12:08;;;;;;;;;;;;;;;;;;4972335;28;106313;-66
2022/03/29 03:14:34;;;;;;;;;;;;;;;;;;4968604;28;136600;-65
2022/03/29 03:17:00;;;;;;;;;;;;;;;;;;4971387;28;137574;-66
2022/03/29 03:19:35;;;;;;;;;;;;;;;;;;4976917;28;123201;-65
2022/03/29 03:22:01;;;;;;;;;;;;;;;;;;4971467;28;137142;-65
2022/03/29 03:24:27;;;;;;;;;;;;;;;;;;4970107;28;138323;-65
2022/03/29 03:26:54;;;;;;;;;;;;;;;;;;4974732;28;122353;-65
2022/03/29 03:29:20;;;;;;;;;;;;;;;;;;4970310;28;136677;-66
2022/03/29 03:31:46;;;;;;;;;;;;;;;;;;4971825;28;122260;-65
2022/03/29 03:34:13;;;;;;;;;;;;;;;;;;4971467;28;135167;-65
2022/03/29 03:36:39;;;;;;;;;;;;;;;;;;4974549;28;137582;-66
2022/03/29 03:39:05;;;;;;;;;;;;;;;;;;4969874;28;123963;-65
2022/03/29 03:41:32;;;;;;;;;;;;;;;;;;4970159;28;136004;-65
2022/03/29 03:43:58;;;;;;;;;;;;;;;;;;4977636;28;137687;-65
2022/03/29 03:46:25;;;;;;;;;;;;;;;;;;4970603;28;121021;-65
2022/03/29 03:48:52;;;;;;;;;;;;;;;;;;4973857;28;135189;-66
2022/03/29 03:51:18;;;;;;;;;;;;;;;;;;4970625;28;121874;-66
2022/03/29 03:53:45;;;;;;;;;;;;;;;;;;4972742;28;106188;-65
2022/03/29 03:56:11;;;;;;;;;;;;;;;;;;4970279;28;136436;-65
2022/03/29 03:58:37;;;;;;;;;;;;;;;;;;4973616;28;122610;-66
2022/03/29 04:01:04;;;;;;;;;;;;;;;;;;4957177;28;133908;-66
2022/03/29 04:03:31;;;;;;;;;;;;;;;;;;4956907;28;135389;-65
2022/03/29 04:05:57;;;;;;;;;;;;;;;;;;4971206;28;121133;-65
2022/03/29 04:08:24;;;;;;;;;;;;;;;;;;4968200;28;136318;-66
2022/03/29 04:10:50;;;;;;;;;;;;;;;;;;4971321;28;135933;-65
2022/03/29 04:13:16;;;;;;;;;;;;;;;;;;4970643;28;135257;-66
2022/03/29 04:15:42;;;;;;;;;;;;;;;;;;4969597;28;137452;-66
2022/03/29 04:18:09;;;;;;;;;;;;;;;;;;4971662;28;123151;-66
2022/03/29 04:20:35;;;;;;;;;;;;;;;;;;4970282;28;136891;-67
2022/03/29 04:23:01;;;;;;;;;;;;;;;;;;4969368;28;136959;-67
2022/03/29 04:25:28;;;;;;;;;;;;;;;;;;4971047;28;124485;-66
2022/03/29 04:27:54;;;;;;;;;;;;;;;;;;4968782;28;135005;-66
2022/03/29 04:30:20;;;;;;;;;;;;;;;;;;4972308;28;137036;-66
2022/03/29 04:32:46;;;;;;;;;;;;;;;;;;4972972;28;122932;-66
2022/03/29 04:35:13;;;;;;;;;;;;;;;;;;4970995;28;118258;-66
2022/03/29 04:37:42;;;;;;;;;;;;;;;;;;4970850;28;123003;-66
2022/03/29 04:40:09;;;;;;;;;;;;;;;;;;4972800;28;136235;-66
2022/03/29 04:42:35;;;;;;;;;;;;;;;;;;4969363;28;135609;-66
2022/03/29 04:45:01;;;;;;;;;;;;;;;;;;4969697;28;123097;-65
2022/03/29 04:47:27;;;;;;;;;;;;;;;;;;4972072;28;127652;-65
2022/03/29 04:49:54;;;;;;;;;;;;;;;;;;4970211;28;135817;-65
2022/03/29 04:52:20;;;;;;;;;;;;;;;;;;4973781;28;116669;-66
2022/03/29 04:54:46;;;;;;;;;;;;;;;;;;4970309;28;134319;-65
2022/03/29 04:57:12;;;;;;;;;;;;;;;;;;4971310;28;107739;-65
2022/03/29 04:59:39;;;;;;;;;;;;;;;;;;4969020;28;137132;-66
2022/03/29 05:02:05;;;;;;;;;;;;;;;;;;4969453;28;136967;-66
2022/03/29 05:04:31;;;;;;;;;;;;;;;;;;4969120;28;123049;-66
2022/03/29 05:06:58;;;;;;;;;;;;;;;;;;4969340;28;132101;-66
2022/03/29 05:09:24;;;;;;;;;;;;;;;;;;4968000;28;136013;-66
2022/03/29 05:11:50;;;;;;;;;;;;;;;;;;4970949;28;106521;-66
2022/03/29 05:14:16;;;;;;;;;;;;;;;;;;4972620;28;137145;-66
2022/03/29 05:16:43;;;;;;;;;;;;;;;;;;4975802;28;121797;-66
2022/03/29 05:19:09;;;;;;;;;;;;;;;;;;4976659;28;136414;-66
2022/03/29 05:21:36;;;;;;;;;;;;;;;;;;4969163;28;136846;-65
2022/03/29 05:24:02;;;;;;;;;;;;;;;;;;4968997;28;122947;-67
2022/03/29 05:26:29;;;;;;;;;;;;;;;;;;4972290;28;135775;-67
2022/03/29 05:28:56;;;;;;;;;;;;;;;;;;4978243;28;137092;-67
2022/03/29 05:31:23;;;;;;;;;;;;;;;;;;4968328;28;121643;-65
2022/03/29 05:33:49;;;;;;;;;;;;;;;;;;4969080;28;135978;-67
2022/03/29 05:36:15;;;;;;;;;;;;;;;;;;4970796;28;137867;-65
2022/03/29 05:38:48;;;;;;;;;;;;;;;;;;4969794;28;137408;-67
2022/03/29 05:41:15;;;;;;;;;;;;;;;;;;4968181;28;107223;-66
2022/03/29 05:43:42;;;;;;;;;;;;;;;;;;4971664;28;124487;-66
2022/03/29 05:48:54;;;;;;;;;;;;;;;;;;4968990;28;136967;-66
2022/03/29 05:51:20;;;;;;;;;;;;;;;;;;4968310;28;123008;-65
2022/03/29 05:53:47;;;;;;;;;;;;;;;;;;4968939;28;130165;-68
2022/03/29 05:56:13;;;;;;;;;;;;;;;;;;4967164;28;135654;-66
2022/03/29 05:58:39;;;;;;;;;;;;;;;;;;4972656;28;122575;-66
2022/03/29 06:01:06;;;;;;;;;;;;;;;;;;4967528;28;137112;-66
2022/03/29 06:03:32;;;;;;;;;;;;;;;;;;4968966;28;123599;-66
2022/03/29 06:05:58;;;;;;;;;;;;;;;;;;4974132;28;110289;-65
2022/03/29 06:08:25;;;;;;;;;;;;;;;;;;4972062;28;137025;-66
2022/03/29 06:10:53;;;;;;;;;;;;;;;;;;4974674;28;123030;-65
2022/03/29 06:13:19;;;;;;;;;;;;;;;;;;4955967;28;128518;-65
2022/03/29 06:15:45;;;;;;;;;;;;;;;;;;4966061;28;137211;-66
2022/03/29 06:18:12;;;;;;;;;;;;;;;;;;4968427;28;122878;-66
2022/03/29 06:20:42;;;;;;;;;;;;;;;;;;4976129;28;136328;-69
2022/03/29 06:23:08;;;;;;;;;;;;;;;;;;4968874;28;118663;-65
2022/03/29 06:25:35;;;;;;;;;;;;;;;;;;4966925;28;136309;-67
2022/03/29 06:28:02;;;;;;;;;;;;;;;;;;4969468;28;136352;-65
2022/03/29 06:30:28;;;;;;;;;;;;;;;;;;4968377;28;121962;-66
2022/03/29 06:32:54;;;;;;;;;;;;;;;;;;4969273;28;133850;-66
2022/03/29 06:35:21;;;;;;;;;;;;;;;;;;4965941;28;135294;-66
2022/03/29 06:37:48;;;;;;;;;;;;;;;;;;4970106;28;122040;-66
2022/03/29 06:40:14;;;;;;;;;;;;;;;;;;4980355;28;134932;-66
2022/03/29 06:42:40;;;;;;;;;;;;;;;;;;4971709;28;106455;-66
2022/03/29 06:45:08;;;;;;;;;;;;;;;;;;4970060;28;136566;-66
2022/03/29 06:47:34;;;;;;;;;;;;;;;;;;4971877;28;136351;-66
2022/03/29 06:50:00;;;;;;;;;;;;;;;;;;4972552;28;122852;-66
2022/03/29 06:52:28;;;;;;;;;;;;;;;;;;4976206;28;137241;-66
2022/03/29 06:54:54;;;;;;;;;;;;;;;;;;4970522;28;137191;-66
2022/03/29 06:57:21;;;;;;;;;;;;;;;;;;4974899;28;109030;-66
2022/03/29 06:59:47;;;;;;;;;;;;;;;;;;4972120;28;133898;-66
2022/03/29 07:02:13;;;;;;;;;;;;;;;;;;4979853;28;137709;-66
2022/03/29 07:04:40;;;;;;;;;;;;;;;;;;4972105;28;136304;-66
2022/03/29 07:07:06;;;;;;;;;;;;;;;;;;4971273;28;137090;-66
2022/03/29 07:12:18;;;;;;;;;;;;;;;;;;4971816;28;133704;-66
2022/03/29 07:14:44;;;;;;;;;;;;;;;;;;4970239;28;137715;-66
2022/03/29 07:17:15;;;;;;;;;;;;;;;;;;4971173;28;122715;-66
2022/03/29 07:19:41;;;;;;;;;;;;;;;;;;4970471;28;137656;-66
2022/03/29 07:22:08;;;;;;;;;;;;;;;;;;4973492;28;106342;-66
2022/03/29 07:24:34;;;;;;;;;;;;;;;;;;4976117;28;121914;-66
2022/03/29 07:27:00;;;;;;;;;;;;;;;;;;4970346;28;137085;-66
2022/03/29 07:29:26;;;;;;;;;;;;;;;;;;4970789;28;122516;-67
2022/03/29 07:31:53;;;;;;;;;;;;;;;;;;4977485;28;105695;-66
2022/03/29 07:34:20;;;;;;;;;;;;;;;;;;4972178;28;107475;-68
2022/03/29 07:36:48;;;;;;;;;;;;;;;;;;4970945;28;120313;-66
2022/03/29 07:39:14;;;;;;;;;;;;;;;;;;4969358;28;106230;-66
2022/03/29 07:41:41;;;;;;;;;;;;;;;;;;4969254;28;138052;-66
2022/03/29 07:44:07;;;;;;;;;;;;;;;;;;4969797;28;122967;-66
2022/03/29 07:46:33;;;;;;;;;;;;;;;;;;4976973;28;135003;-66
2022/03/29 07:49:00;;;;;;;;;;;;;;;;;;4977243;28;122111;-67
2022/03/29 07:51:47;;;;;;;;;;;;;;;;;;4972031;28;107299;-65
2022/03/29 07:54:13;;;;;;;;;;;;;;;;;;4970623;28;135783;-63
2022/03/29 07:56:39;;;;;;;;;;;;;;;;;;4971901;28;121870;-64
2022/03/29 07:59:06;;;;;;;;;;;;;;;;;;4971008;28;127215;-64
2022/03/29 08:01:32;;;;;;;;;;;;;;;;;;4963640;28;134267;-64
2022/03/29 08:03:58;;;;;;;;;;;;;;;;;;4965296;28;122412;-63
2022/03/29 08:06:24;;;;;;;;;;;;;;;;;;4968520;28;136069;-64
2022/03/29 08:08:53;;;;;;;;;;;;;;;;;;4971686;28;137684;-64
2022/03/29 08:11:20;;;;;;;;;;;;;;;;;;4966771;28;134463;-63
2022/03/29 08:13:46;;;;;;;;;;;;;;;;;;4968963;28;134500;-63
2022/03/29 08:16:12;;;;;;;;;;;;;;;;;;4969928;28;121844;-64
2022/03/29 08:18:39;;;;;;;;;;;;;;;;;;4971631;28;138310;-64
2022/03/29 08:21:47;;;;;;;;;;;;;;;;;;4955408;28;136394;-64
2022/03/29 08:23:52;;;;;;;;;;;;;;;;;;4971056;28;123775;-64
2022/03/29 08:26:18;;;;;;;;;;;;;;;;;;4971590;28;134958;-64
2022/03/29 08:28:45;;;;;;;;;;;;;;;;;;4982422;28;137293;-62
2022/03/29 08:31:12;;;;;;;;;;;;;;;;;;4973377;28;117849;-66
2022/03/29 08:33:38;;;;;;;;;;;;;;;;;;4967666;28;136141;-63
2022/03/29 08:36:04;;;;;;;;;;;;;;;;;;4967919;28;125471;-64
2022/03/29 08:38:31;;;;;;;;;;;;;;;;;;4977979;28;134894;-63
2022/03/29 08:40:57;;;;;;;;;;;;;;;;;;4969695;28;136125;-63
2022/03/29 08:43:24;;;;;;;;;;;;;;;;;;4965176;28;124463;-63
2022/03/29 08:45:50;;;;;;;;;;;;;;;;;;4974575;28;137207;-63
2022/03/29 08:48:17;;;;;;;;;;;;;;;;;;4968071;28;137646;-63
2022/03/29 08:50:43;;;;;;;;;;;;;;;;;;4974568;28;122520;-64
2022/03/29 08:53:11;;;;;;;;;;;;;;;;;;4969020;28;135684;-64
2022/03/29 08:55:41;;;;;;;;;;;;;;;;;;4968291;28;113268;-65
2022/03/29 08:58:07;;;;;;;;;;;;;;;;;;4959622;28;137550;-64
2022/03/29 09:00:35;;;;;;;;;;;;;;;;;;4967363;28;135731;-64
2022/03/29 09:03:01;;;;;;;;;;;;;;;;;;4969085;28;124221;-64
2022/03/29 09:05:29;;;;;;;;;;;;;;;;;;4963298;28;127461;-64
2022/03/29 09:07:56;;;;;;;;;;;;;;;;;;4967199;28;137382;-64
2022/03/29 09:10:22;;;;;;;;;;;;;;;;;;4968557;28;123173;-65
2022/03/29 09:12:48;;;;;;;;;;;;;;;;;;4963982;28;135745;-64
2022/03/29 09:15:15;;;;;;;;;;;;;;;;;;4941277;28;119753;-64
2022/03/29 09:17:41;;;;;;;;;;;;;;;;;;4949858;28;136530;-64
2022/03/29 09:20:07;;;;;;;;;;;;;;;;;;4949483;28;136284;-64
2022/03/29 09:22:34;;;;;;;;;;;;;;;;;;4951466;28;107449;-64
2022/03/29 09:25:01;;;;;;;;;;;;;;;;;;4948903;28;135185;-64
2022/03/29 09:27:27;;;;;;;;;;;;;;;;;;4949638;28;135789;-64
2022/03/29 09:30:12;;;;;;;;;;;;;;;;;;4948893;28;123167;-64
2022/03/29 09:32:39;;;;;;;;;;;;;;;;;;4951452;28;136483;-63
2022/03/29 09:35:08;;;;;;;;;;;;;;;;;;4951175;28;137927;-65
2022/03/29 09:37:34;;;;;;;;;;;;;;;;;;4947361;28;135779;-64
2022/03/29 09:40:01;;;;;;;;;;;;;;;;;;4949647;28;137792;-65
2022/03/29 09:42:41;;;;;;;;;;;;;;;;;;4958208;28;107776;-65
2022/03/29 09:45:08;;;;;;;;;;;;;;;;;;4945433;28;137252;-66
2022/03/29 09:47:34;;;;;;;;;;;;;;;;;;4949608;28;131305;-65
2022/03/29 09:50:06;;;;;;;;;;;;;;;;;;4950558;28;112999;-65
2022/03/29 09:52:32;;;;;;;;;;;;;;;;;;4947252;28;129746;-65
2022/03/29 09:54:59;;;;;;;;;;;;;;;;;;4950553;28;107446;-66
2022/03/29 09:57:25;;;;;;;;;;;;;;;;;;4947741;28;108137;-65
2022/03/29 09:59:52;;;;;;;;;;;;;;;;;;4934157;28;137030;-64
2022/03/29 10:02:18;;;;;;;;;;;;;;;;;;4941712;28;122953;-64
2022/03/29 10:04:45;;;;;;;;;;;;;;;;;;4950094;28;135744;-65
2022/03/29 10:07:11;;;;;;;;;;;;;;;;;;4947051;28;135709;-63
2022/03/29 10:09:42;;;;;;;;;;;;;;;;;;4949706;28;120213;-66
2022/03/29 10:12:09;;;;;;;;;;;;;;;;;;4958497;28;107479;-65
2022/03/29 10:14:36;;;;;;;;;;;;;;;;;;4970219;28;137461;-67
2022/03/29 10:17:02;;;;;;;;;;;;;;;;;;4975457;28;124361;-65
2022/03/29 10:19:28;;;;;;;;;;;;;;;;;;4971502;28;118069;-66
2022/03/29 10:21:56;;;;;;;;;;;;;;;;;;4972952;28;121898;-66
2022/03/29 10:24:23;;;;;;;;;;;;;;;;;;4970700;28;134661;-65
2022/03/29 10:26:49;;;;;;;;;;;;;;;;;;4973989;28;137039;-65
2022/03/29 10:29:15;;;;;;;;;;;;;;;;;;4969226;28;122195;-68
2022/03/29 10:31:42;;;;;;;;;;;;;;;;;;4967575;28;136345;-67
2022/03/29 10:34:08;;;;;;;;;;;;;;;;;;4973390;28;137038;-66
2022/03/29 10:36:35;;;;;;;;;;;;;;;;;;4967742;28;123268;-68
2022/03/29 10:39:01;;;;;;;;;;;;;;;;;;4969330;28;136294;-66
2022/03/29 10:41:31;;;;;;;;;;;;;;;;;;4980698;28;137078;-67
2022/03/29 10:44:01;;;;;;;;;;;;;;;;;;4971321;28;135976;-67
2022/03/29 10:46:27;;;;;;;;;;;;;;;;;;4968835;28;137047;-67
2022/03/29 10:48:53;;;;;;;;;;;;;;;;;;4970262;28;122711;-68
2022/03/29 10:51:20;;;;;;;;;;;;;;;;;;4972464;28;136054;-66
2022/03/29 10:53:48;;;;;;;;;;;;;;;;;;4972209;28;136856;-71
2022/03/29 10:56:15;;;;;;;;;;;;;;;;;;4968753;28;122965;-66
2022/03/29 10:58:41;;;;;;;;;;;;;;;;;;4968092;28;135727;-67
2022/03/29 11:01:07;;;;;;;;;;;;;;;;;;4971269;28;135123;-67
2022/03/29 11:03:36;;;;;;;;;;;;;;;;;;4969676;28;107834;-67
2022/03/29 11:06:03;;;;;;;;;;;;;;;;;;4978392;28;118435;-66
2022/03/29 11:08:29;;;;;;;;;;;;;;;;;;4970945;28;122279;-66
2022/03/29 11:10:56;;;;;;;;;;;;;;;;;;4979503;28;136793;-66
2022/03/29 11:13:23;;;;;;;;;;;;;;;;;;4968356;28;132779;-66
2022/03/29 11:15:49;;;;;;;;;;;;;;;;;;4972548;28;117511;-67
2022/03/29 11:18:16;;;;;;;;;;;;;;;;;;4970652;28;136319;-67
2022/03/29 11:20:42;;;;;;;;;;;;;;;;;;4970966;28;119993;-67
2022/03/29 11:23:08;;;;;;;;;;;;;;;;;;4974499;28;122957;-67
2022/03/29 11:25:35;;;;;;;;;;;;;;;;;;4970439;28;136540;-65
2022/03/29 11:28:01;;;;;;;;;;;;;;;;;;4970927;28;124874;-68
2022/03/29 11:30:27;;;;;;;;;;;;;;;;;;4970602;28;134534;-68
2022/03/29 11:32:55;;;;;;;;;;;;;;;;;;4972345;28;135767;-67
2022/03/29 11:35:24;;;;;;;;;;;;;;;;;;4975975;28;106335;-68
2022/03/29 11:37:51;;;;;;;;;;;;;;;;;;4971309;28;137300;-68
2022/03/29 11:40:17;;;;;;;;;;;;;;;;;;4975440;28;128531;-68
2022/03/29 11:42:44;;;;;;;;;;;;;;;;;;4974042;28;123197;-67
2022/03/29 11:45:11;;;;;;;;;;;;;;;;;;4965090;28;135378;-68
2022/03/29 11:47:37;;;;;;;;;;;;;;;;;;4970696;28;123085;-68
2022/03/29 11:50:03;;;;;;;;;;;;;;;;;;4969887;28;136502;-67
2022/03/29 11:52:29;;;;;;;;;;;;;;;;;;4970632;28;127545;-68
2022/03/29 11:54:56;;;;;;;;;;;;;;;;;;4970599;28;123898;-68
2022/03/29 11:57:23;;;;;;;;;;;;;;;;;;4974094;28;124613;-68
2022/03/29 11:59:49;;;;;;;;;;;;;;;;;;4969486;28;135496;-68
2022/03/29 12:02:22;;;;;;;;;;;;;;;;;;4969168;28;123517;-68
2022/03/29 12:04:49;;;;;;;;;;;;;;;;;;4968419;28;135009;-67
2022/03/29 12:07:15;;;;;;;;;;;;;;;;;;4973374;28;135778;-67
2022/03/29 12:09:41;;;;;;;;;;;;;;;;;;4970679;28;135293;-68
2022/03/29 12:12:07;;;;;;;;;;;;;;;;;;4953980;28;128429;-68
2022/03/29 12:14:34;;;;;;;;;;;;;;;;;;4974831;28;106585;-68
2022/03/29 12:17:03;;;;;;;;;;;;;;;;;;4970684;28;128582;-67
2022/03/29 12:19:29;;;;;;;;;;;;;;;;;;4970259;28;130602;-67
2022/03/29 12:22:00;;;;;;;;;;;;;;;;;;4968785;28;107852;-67
2022/03/29 12:24:27;;;;;;;;;;;;;;;;;;4968857;28;136578;-68
2022/03/29 12:26:53;;;;;;;;;;;;;;;;;;4969416;28;136432;-68
2022/03/29 12:29:20;;;;;;;;;;;;;;;;;;4972922;28;124343;-67
2022/03/29 12:31:46;;;;;;;;;;;;;;;;;;4969638;28;137472;-68
2022/03/29 12:34:14;;;;;;;;;;;;;;;;;;4970386;28;122624;-68
2022/03/29 12:36:40;;;;;;;;;;;;;;;;;;4968825;28;136473;-68
2022/03/29 12:39:06;;;;;;;;;;;;;;;;;;4966105;28;135752;-68
2022/03/29 12:41:32;;;;;;;;;;;;;;;;;;4969003;28;122034;-67
2022/03/29 12:43:59;;;;;;;;;;;;;;;;;;4968190;28;133902;-67
2022/03/29 12:46:26;;;;;;;;;;;;;;;;;;4967412;28;137369;-67
2022/03/29 12:48:52;;;;;;;;;;;;;;;;;;4969326;28;122816;-67
2022/03/29 12:51:18;;;;;;;;;;;;;;;;;;4972804;28;137659;-68
2022/03/29 12:53:44;;;;;;;;;;;;;;;;;;4969462;28;123599;-68
2022/03/29 12:56:11;;;;;;;;;;;;;;;;;;4968781;28;117379;-68
2022/03/29 12:58:37;;;;;;;;;;;;;;;;;;4968790;28;137065;-68
2022/03/29 13:01:03;;;;;;;;;;;;;;;;;;4968961;28;123230;-68
2022/03/29 13:03:30;;;;;;;;;;;;;;;;;;4968636;28;137349;-68
2022/03/29 13:06:03;;;;;;;;;;;;;;;;;;4968112;28;137542;-66
2022/03/29 13:08:30;;;;;;;;;;;;;;;;;;4962854;28;121823;-67
2022/03/29 13:10:57;;;;;;;;;;;;;;;;;;4972672;28;136558;-67
2022/03/29 13:13:29;;;;;;;;;;;;;;;;;;4968967;28;122522;-66
2022/03/29 13:15:55;;;;;;;;;;;;;;;;;;4952636;28;136869;-66
2022/03/29 13:18:22;;;;;;;;;;;;;;;;;;4968984;28;136606;-68
2022/03/29 13:21:08;;;;;;;;;;;;;;;;;;4966894;28;106079;-66
2022/03/29 13:23:54;;;;;;;;;;;;;;;;;;4969470;28;135372;-66
2022/03/29 13:26:20;;;;;;;;;;;;;;;;;;4963434;28;125366;-67
2022/03/29 13:28:47;;;;;;;;;;;;;;;;;;4969286;28;123328;-67
2022/03/29 13:31:16;;;;;;;;;;;;;;;;;;4949984;28;136205;-67
2022/03/29 13:33:43;;;;;;;;;;;;;;;;;;4972923;28;134788;-67
2022/03/29 13:36:09;;;;;;;;;;;;;;;;;;4969066;28;137465;-68
2022/03/29 13:38:35;;;;;;;;;;;;;;;;;;4969704;28;138042;-67
2022/03/29 13:41:02;;;;;;;;;;;;;;;;;;4976088;28;122929;-67
2022/03/29 13:43:28;;;;;;;;;;;;;;;;;;4970096;28;136635;-69
2022/03/29 13:45:56;;;;;;;;;;;;;;;;;;4966776;28;135855;-67
2022/03/29 13:48:23;;;;;;;;;;;;;;;;;;4971398;28;123157;-67
2022/03/29 13:50:49;;;;;;;;;;;;;;;;;;4969175;28;136713;-65
2022/03/29 13:53:17;;;;;;;;;;;;;;;;;;4965888;28;137380;-67
2022/03/29 13:55:43;;;;;;;;;;;;;;;;;;4971195;28;112733;-67
2022/03/29 13:58:09;;;;;;;;;;;;;;;;;;4964661;28;137788;-68
2022/03/29 14:00:36;;;;;;;;;;;;;;;;;;4969298;28;123125;-67
2022/03/29 14:03:02;;;;;;;;;;;;;;;;;;4967167;28;128088;-66
2022/03/29 14:05:29;;;;;;;;;;;;;;;;;;4969815;28;137609;-66
2022/03/29 14:07:55;;;;;;;;;;;;;;;;;;4966204;28;120399;-66
2022/03/29 14:10:23;;;;;;;;;;;;;;;;;;4968108;28;135301;-66
2022/03/29 14:12:49;;;;;;;;;;;;;;;;;;4967334;28;137675;-66
2022/03/29 14:15:16;;;;;;;;;;;;;;;;;;4965475;28;123318;-67
2022/03/29 14:17:42;;;;;;;;;;;;;;;;;;4968708;28;137688;-66
2022/03/29 14:20:08;;;;;;;;;;;;;;;;;;4963882;28;123020;-67
2022/03/29 14:22:35;;;;;;;;;;;;;;;;;;4965933;28;106963;-66
2022/03/29 14:25:01;;;;;;;;;;;;;;;;;;4966119;28;137449;-67
2022/03/29 14:27:27;;;;;;;;;;;;;;;;;;4967943;28;123720;-66
2022/03/29 14:29:54;;;;;;;;;;;;;;;;;;4967465;28;129308;-66
2022/03/29 14:32:20;;;;;;;;;;;;;;;;;;4966721;28;137233;-65
2022/03/29 14:34:47;;;;;;;;;;;;;;;;;;4963375;28;122588;-65
2022/03/29 14:37:13;;;;;;;;;;;;;;;;;;4968764;28;118074;-65
2022/03/29 14:39:41;;;;;;;;;;;;;;;;;;4971606;28;108184;-66
2022/03/29 14:42:07;;;;;;;;;;;;;;;;;;4965974;28;137189;-66
2022/03/29 14:44:33;;;;;;;;;;;;;;;;;;4966291;28;124261;-65
2022/03/29 14:47:00;;;;;;;;;;;;;;;;;;4967499;28;123522;-64
2022/03/29 14:49:26;;;;;;;;;;;;;;;;;;4966362;28;136554;-65
2022/03/29 14:51:52;;;;;;;;;;;;;;;;;;4954696;28;136629;-67
2022/03/29 14:54:19;;;;;;;;;;;;;;;;;;4972940;28;124248;-67
2022/03/29 14:56:45;;;;;;;;;;;;;;;;;;4966277;28;137946;-64
2022/03/29 14:59:11;;;;;;;;;;;;;;;;;;4964713;28;136479;-64
2022/03/29 15:01:41;;;;;;;;;;;;;;;;;;4964468;28;124158;-66
2022/03/29 15:04:08;;;;;;;;;;;;;;;;;;4962891;28;137609;-66
2022/03/29 15:06:34;;;;;;;;;;;;;;;;;;4966959;28;120329;-66
2022/03/29 15:09:00;;;;;;;;;;;;;;;;;;4969721;28;137272;-66
2022/03/29 15:11:27;;;;;;;;;;;;;;;;;;4968158;28;138558;-66
2022/03/29 15:13:53;;;;;;;;;;;;;;;;;;4968681;28;121174;-65
2022/03/29 15:16:20;;;;;;;;;;;;;;;;;;4968832;28;136043;-66
2022/03/29 15:18:46;;;;;;;;;;;;;;;;;;4967860;28;137397;-66
2022/03/29 15:21:13;;;;;;;;;;;;;;;;;;4972558;28;124050;-67
2022/03/29 15:23:39;;;;;;;;;;;;;;;;;;4966212;28;123961;-66
2022/03/29 15:26:05;;;;;;;;;;;;;;;;;;4961275;28;123109;-66
2022/03/29 15:28:32;;;;;;;;;;;;;;;;;;4968969;28;108833;-66
2022/03/29 15:30:58;;;;;;;;;;;;;;;;;;4968294;28;139540;-67
2022/03/29 15:33:25;;;;;;;;;;;;;;;;;;4969701;28;126981;-67
2022/03/29 15:35:52;;;;;;;;;;;;;;;;;;4962081;28;136764;-67
2022/03/29 15:38:19;;;;;;;;;;;;;;;;;;4973125;28;108228;-66
2022/03/29 15:40:46;;;;;;;;;;;;;;;;;;4968847;28;107448;-66
2022/03/29 15:43:14;;;;;;;;;;;;;;;;;;4970818;28;135979;-66
2022/03/29 15:45:44;;;;;;;;;;;;;;;;;;4970522;28;123754;-66
2022/03/29 15:48:15;;;;;;;;;;;;;;;;;;4969593;28;107315;-66
2022/03/29 15:50:41;;;;;;;;;;;;;;;;;;4968696;28;132819;-65
2022/03/29 15:53:08;;;;;;;;;;;;;;;;;;4969704;28;123753;-65
2022/03/29 15:55:35;;;;;;;;;;;;;;;;;;4968610;28;136537;-67
2022/03/29 15:58:01;;;;;;;;;;;;;;;;;;4968412;28;137798;-65
2022/03/29 16:00:31;;;;;;;;;;;;;;;;;;4967184;28;122543;-64
2022/03/29 16:02:59;;;;;;;;;;;;;;;;;;4969718;28;137254;-68
2022/03/29 16:05:26;;;;;;;;;;;;;;;;;;4962024;28;137030;-68
2022/03/29 16:07:52;;;;;;;;;;;;;;;;;;4968455;28;135696;-66
2022/03/29 16:10:18;;;;;;;;;;;;;;;;;;4969548;28;129037;-68
2022/03/29 16:12:45;;;;;;;;;;;;;;;;;;4969335;28;122819;-68
2022/03/29 16:15:12;;;;;;;;;;;;;;;;;;4968537;28;129431;-68
2022/03/29 16:17:38;;;;;;;;;;;;;;;;;;4969091;28;139118;-68
2022/03/29 16:20:04;;;;;;;;;;;;;;;;;;4967477;28;124054;-68
2022/03/29 16:22:31;;;;;;;;;;;;;;;;;;4969487;28;120091;-67
2022/03/29 16:24:57;;;;;;;;;;;;;;;;;;4969251;28;134104;-67
2022/03/29 16:27:24;;;;;;;;;;;;;;;;;;4952025;28;123281;-68
2022/03/29 16:29:50;;;;;;;;;;;;;;;;;;4968091;28;137112;-68
2022/03/29 16:32:18;;;;;;;;;;;;;;;;;;4967417;28;123132;-67
2022/03/29 16:34:44;;;;;;;;;;;;;;;;;;4966573;28;135896;-66